Time;durP1;ratioP1;P1;durP2;ratioP2;P2;SDS_P1;SDS_P2;PMS_P1;PMS_P2;Temp;Humidity;BMP_temperature;BMP_pressure;BME280_temperature;BME280_humidity;BME280_pressure;Samples;Min_cycle;Max_cycle;Signal;HPM_P1;HPM_P2
2022/03/31 00:00:28;;;;;;;7.47;2.00;;;;;;;;;;4985938;28;20503;-72
2022/03/31 00:02:58;;;;;;;4.05;1.73;;;;;;;;;;4983483;28;20073;-72
2022/03/31 00:05:24;;;;;;;6.25;1.85;;;;;;;;;;4992508;28;20430;-71
2022/03/31 00:07:51;;;;;;;4.93;1.90;;;;;;;;;;4988542;28;20549;-72
2022/03/31 00:10:23;;;;;;;4.90;1.80;;;;;;;;;;4990046;28;20387;-72
2022/03/31 00:12:49;;;;;;;5.75;1.95;;;;;;;;;;4989049;28;20074;-71
2022/03/31 00:15:16;;;;;;;4.07;1.80;;;;;;;;;;4989731;28;20042;-72
2022/03/31 00:17:42;;;;;;;2.63;1.70;;;;;;;;;;4969465;28;20497;-72
2022/03/31 00:32:29;;;;;;;5.15;1.77;;;;;;;;;;4991586;28;20492;-71
2022/03/31 00:34:56;;;;;;;7.00;1.98;;;;;;;;;;4988504;28;20497;-71
2022/03/31 00:37:37;;;;;;;4.38;1.65;;;;;;;;;;4987629;28;20407;-71
2022/03/31 00:40:04;;;;;;;3.15;1.70;;;;;;;;;;4991863;28;20824;-71
2022/03/31 00:42:30;;;;;;;4.90;2.08;;;;;;;;;;4974356;28;20041;-71
2022/03/31 00:44:56;;;;;;;7.05;2.00;;;;;;;;;;4982121;28;20398;-71
2022/03/31 00:47:23;;;;;;;4.80;1.80;;;;;;;;;;4985520;28;20415;-72
2022/03/31 00:49:49;;;;;;;5.53;1.88;;;;;;;;;;4986125;28;20427;-72
2022/03/31 00:52:15;;;;;;;6.88;2.00;;;;;;;;;;4985776;28;20391;-71
2022/03/31 00:54:42;;;;;;;3.25;2.00;;;;;;;;;;4987307;28;20419;-72
2022/03/31 00:57:12;;;;;;;8.15;2.45;;;;;;;;;;4985872;28;21114;-72
2022/03/31 00:59:39;;;;;;;7.10;2.15;;;;;;;;;;4980779;28;20432;-72
2022/03/31 01:02:05;;;;;;;7.15;2.50;;;;;;;;;;4983121;28;20906;-72
2022/03/31 01:04:34;;;;;;;5.30;2.60;;;;;;;;;;4968267;28;20419;-71
2022/03/31 01:07:01;;;;;;;4.75;2.55;;;;;;;;;;4984297;28;20446;-72
2022/03/31 01:09:27;;;;;;;6.03;3.03;;;;;;;;;;4982065;28;20455;-72
2022/03/31 01:11:53;;;;;;;6.60;3.20;;;;;;;;;;4985267;28;20034;-72
2022/03/31 01:14:20;;;;;;;3.85;2.42;;;;;;;;;;4979858;28;20038;-72
2022/03/31 01:16:47;;;;;;;7.65;2.70;;;;;;;;;;4981535;28;20050;-71
2022/03/31 01:19:13;;;;;;;4.18;2.22;;;;;;;;;;4987401;28;20502;-71
2022/03/31 01:21:43;;;;;;;4.00;2.17;;;;;;;;;;4985569;28;20057;-71
2022/03/31 01:24:13;;;;;;;5.28;1.98;;;;;;;;;;4981306;28;20537;-71
2022/03/31 01:26:40;;;;;;;2.70;1.63;;;;;;;;;;4985795;28;20045;-71
2022/03/31 01:29:06;;;;;;;8.13;2.10;;;;;;;;;;4986965;28;20046;-71
2022/03/31 01:31:32;;;;;;;4.63;1.90;;;;;;;;;;4984008;28;20046;-72
2022/03/31 01:33:59;;;;;;;5.35;1.58;;;;;;;;;;4984884;28;20047;-71
2022/03/31 01:36:26;;;;;;;5.00;1.83;;;;;;;;;;4985176;28;20049;-71
2022/03/31 01:38:52;;;;;;;4.20;1.88;;;;;;;;;;4985067;28;20150;-71
2022/03/31 01:41:18;;;;;;;4.97;1.63;;;;;;;;;;4988291;28;20061;-71
2022/03/31 01:43:44;;;;;;;7.55;1.60;;;;;;;;;;4983957;28;20522;-71
2022/03/31 01:46:10;;;;;;;6.15;2.30;;;;;;;;;;4987462;28;20050;-71
2022/03/31 01:48:37;;;;;;;2.00;1.60;;;;;;;;;;4969242;28;20049;-71
2022/03/31 01:51:07;;;;;;;4.43;1.75;;;;;;;;;;4988541;28;20150;-71
2022/03/31 01:53:34;;;;;;;6.47;2.22;;;;;;;;;;4986990;28;20041;-72
2022/03/31 01:56:01;;;;;;;5.97;2.30;;;;;;;;;;4983363;28;20046;-70
2022/03/31 01:58:27;;;;;;;4.18;2.53;;;;;;;;;;4986970;28;20047;-72
2022/03/31 02:00:53;;;;;;;5.43;2.47;;;;;;;;;;4987852;28;20133;-71
2022/03/31 02:03:19;;;;;;;5.25;2.13;;;;;;;;;;4988978;28;20046;-71
2022/03/31 02:05:45;;;;;;;3.47;2.00;;;;;;;;;;4986099;28;20813;-72
2022/03/31 02:08:12;;;;;;;4.63;2.28;;;;;;;;;;4983729;28;20042;-72
2022/03/31 02:10:38;;;;;;;5.57;2.33;;;;;;;;;;4986119;28;20050;-72
2022/03/31 02:13:07;;;;;;;3.85;2.30;;;;;;;;;;4985246;28;20525;-72
2022/03/31 02:15:34;;;;;;;5.70;2.28;;;;;;;;;;4985039;28;20383;-72
2022/03/31 02:18:02;;;;;;;5.93;2.40;;;;;;;;;;4986272;28;20046;-72
2022/03/31 02:20:30;;;;;;;3.72;2.10;;;;;;;;;;4987614;28;20038;-72
2022/03/31 02:23:00;;;;;;;5.38;2.40;;;;;;;;;;4988648;28;20050;-72
2022/03/31 02:25:27;;;;;;;7.57;2.47;;;;;;;;;;4989596;28;20054;-72
2022/03/31 02:27:53;;;;;;;4.78;2.50;;;;;;;;;;4989923;28;20042;-72
2022/03/31 02:30:20;;;;;;;3.63;2.08;;;;;;;;;;4989440;28;20093;-72
2022/03/31 02:32:46;;;;;;;5.07;2.10;;;;;;;;;;4986832;28;20053;-72
2022/03/31 02:35:12;;;;;;;4.30;2.28;;;;;;;;;;4988610;28;20117;-72
2022/03/31 02:37:38;;;;;;;6.25;2.40;;;;;;;;;;4986683;28;20046;-72
2022/03/31 02:40:05;;;;;;;3.88;2.22;;;;;;;;;;4990251;28;20117;-72
2022/03/31 02:42:32;;;;;;;6.32;2.60;;;;;;;;;;4989558;28;20086;-72
2022/03/31 02:44:58;;;;;;;6.05;2.45;;;;;;;;;;4985839;28;20123;-73
2022/03/31 02:47:24;;;;;;;5.07;2.53;;;;;;;;;;4986956;28;20064;-72
2022/03/31 02:49:50;;;;;;;3.53;2.55;;;;;;;;;;4987601;28;20046;-72
2022/03/31 02:52:16;;;;;;;3.65;2.40;;;;;;;;;;4980672;28;20070;-72
2022/03/31 02:57:27;;;;;;;4.07;2.40;;;;;;;;;;4979326;28;20042;-72
2022/03/31 02:59:53;;;;;;;6.00;2.28;;;;;;;;;;4987959;28;20148;-72
2022/03/31 03:02:19;;;;;;;5.53;2.15;;;;;;;;;;4970612;28;20042;-73
2022/03/31 03:04:46;;;;;;;5.70;2.80;;;;;;;;;;4989287;28;20498;-72
2022/03/31 03:07:12;;;;;;;6.43;2.53;;;;;;;;;;4987628;28;20506;-72
2022/03/31 03:09:38;;;;;;;5.68;2.75;;;;;;;;;;4987433;28;20054;-72
2022/03/31 03:12:05;;;;;;;6.20;2.53;;;;;;;;;;4985654;28;20042;-73
2022/03/31 03:14:32;;;;;;;5.95;2.72;;;;;;;;;;4984209;28;20540;-72
2022/03/31 03:16:59;;;;;;;7.07;2.40;;;;;;;;;;4987372;28;20579;-73
2022/03/31 03:19:25;;;;;;;5.00;2.80;;;;;;;;;;4987088;28;20506;-73
2022/03/31 03:21:51;;;;;;;3.88;2.40;;;;;;;;;;4986750;28;21121;-72
2022/03/31 03:24:17;;;;;;;4.72;2.90;;;;;;;;;;4986964;28;20414;-72
2022/03/31 03:26:43;;;;;;;8.27;2.80;;;;;;;;;;4970650;28;20410;-72
2022/03/31 03:29:09;;;;;;;4.75;2.90;;;;;;;;;;4983671;28;20065;-73
2022/03/31 03:31:36;;;;;;;4.80;3.28;;;;;;;;;;4984211;28;22138;-72
2022/03/31 03:34:02;;;;;;;7.30;3.63;;;;;;;;;;4986041;28;20046;-73
2022/03/31 03:36:28;;;;;;;8.93;3.95;;;;;;;;;;4987363;28;20042;-72
2022/03/31 03:38:54;;;;;;;8.88;4.32;;;;;;;;;;4984965;28;20050;-73
2022/03/31 03:41:21;;;;;;;8.32;4.35;;;;;;;;;;4987391;28;20054;-73
2022/03/31 03:43:48;;;;;;;8.65;4.85;;;;;;;;;;4983530;28;20035;-72
2022/03/31 03:46:13;;;;;;;8.77;5.15;;;;;;;;;;4988038;28;20398;-73
2022/03/31 03:48:40;;;;;;;8.02;5.60;;;;;;;;;;4985580;28;20100;-73
2022/03/31 03:51:09;;;;;;;9.45;5.82;;;;;;;;;;4987441;28;20081;-73
2022/03/31 03:53:35;;;;;;;11.52;7.20;;;;;;;;;;4985455;28;20050;-73
2022/03/31 03:56:01;;;;;;;7.43;6.68;;;;;;;;;;4988939;28;20038;-73
2022/03/31 03:58:27;;;;;;;10.73;7.53;;;;;;;;;;4986265;28;20042;-73
2022/03/31 04:00:54;;;;;;;7.97;7.18;;;;;;;;;;4987609;28;20054;-72
2022/03/31 04:03:20;;;;;;;15.88;7.97;;;;;;;;;;4986268;28;20060;-73
2022/03/31 04:05:46;;;;;;;9.75;8.55;;;;;;;;;;4989843;28;20405;-72
2022/03/31 04:08:12;;;;;;;9.50;8.10;;;;;;;;;;4983384;28;20038;-73
2022/03/31 04:10:38;;;;;;;10.77;8.90;;;;;;;;;;4985290;28;20487;-73
2022/03/31 04:13:04;;;;;;;8.90;8.02;;;;;;;;;;4986841;28;20042;-73
2022/03/31 04:15:30;;;;;;;9.40;8.40;;;;;;;;;;4985462;28;20038;-73
2022/03/31 04:17:56;;;;;;;9.32;8.10;;;;;;;;;;4987426;28;20092;-73
2022/03/31 04:20:22;;;;;;;9.38;8.35;;;;;;;;;;4984991;28;20228;-73
2022/03/31 04:22:48;;;;;;;9.32;8.35;;;;;;;;;;4970950;28;20554;-73
2022/03/31 04:25:14;;;;;;;10.68;8.88;;;;;;;;;;4984624;28;20046;-73
2022/03/31 04:27:40;;;;;;;9.88;8.88;;;;;;;;;;4971715;28;20042;-73
2022/03/31 04:30:08;;;;;;;10.20;8.60;;;;;;;;;;4986002;28;20042;-73
2022/03/31 04:32:34;;;;;;;10.05;9.10;;;;;;;;;;4984399;28;20046;-73
2022/03/31 04:35:00;;;;;;;9.77;8.77;;;;;;;;;;4984318;28;20060;-73
2022/03/31 04:37:26;;;;;;;11.95;8.85;;;;;;;;;;4984311;28;20050;-72
2022/03/31 04:39:52;;;;;;;9.05;8.13;;;;;;;;;;4987561;28;20081;-73
2022/03/31 04:42:20;;;;;;;8.88;8.00;;;;;;;;;;4986154;28;20047;-73
2022/03/31 04:44:46;;;;;;;9.98;8.98;;;;;;;;;;4982310;28;20058;-73
2022/03/31 04:47:12;;;;;;;9.40;8.50;;;;;;;;;;4986308;28;20042;-73
2022/03/31 04:49:38;;;;;;;10.07;8.98;;;;;;;;;;4983008;28;20121;-72
2022/03/31 04:52:05;;;;;;;10.35;9.35;;;;;;;;;;4984585;28;20676;-73
2022/03/31 04:54:31;;;;;;;10.90;9.40;;;;;;;;;;4982871;28;20125;-71
2022/03/31 04:56:57;;;;;;;11.88;10.68;;;;;;;;;;4986558;28;20161;-71
2022/03/31 04:59:23;;;;;;;11.23;10.13;;;;;;;;;;4989835;28;20038;-71
2022/03/31 05:01:49;;;;;;;12.25;10.85;;;;;;;;;;4988956;28;20042;-72
2022/03/31 05:04:16;;;;;;;12.77;11.43;;;;;;;;;;4991233;28;20034;-71
2022/03/31 05:06:42;;;;;;;11.65;10.45;;;;;;;;;;4989446;28;20050;-71
2022/03/31 05:09:08;;;;;;;11.88;10.73;;;;;;;;;;4992980;28;20034;-71
2022/03/31 05:11:35;;;;;;;11.55;10.45;;;;;;;;;;4983744;28;20074;-71
2022/03/31 05:14:01;;;;;;;10.32;9.23;;;;;;;;;;4987643;28;20035;-71
2022/03/31 05:16:27;;;;;;;9.90;9.00;;;;;;;;;;4988836;28;20044;-71
2022/03/31 05:18:53;;;;;;;13.13;11.30;;;;;;;;;;4990225;28;20180;-70
2022/03/31 05:21:19;;;;;;;13.30;11.93;;;;;;;;;;4991643;28;20042;-71
2022/03/31 05:23:45;;;;;;;8.95;8.13;;;;;;;;;;4986561;28;20081;-71
2022/03/31 05:26:12;;;;;;;8.82;8.02;;;;;;;;;;4985865;28;20661;-72
2022/03/31 05:28:38;;;;;;;7.93;7.20;;;;;;;;;;4991352;28;20053;-72
2022/03/31 05:31:04;;;;;;;7.43;6.72;;;;;;;;;;4990235;28;20038;-71
2022/03/31 05:33:30;;;;;;;8.63;7.75;;;;;;;;;;4994277;28;20077;-71
2022/03/31 05:35:58;;;;;;;8.32;7.53;;;;;;;;;;4989920;28;20031;-71
2022/03/31 05:38:24;;;;;;;8.05;7.28;;;;;;;;;;4990619;28;20050;-71
2022/03/31 05:40:50;;;;;;;8.20;7.40;;;;;;;;;;4971970;28;20034;-70
2022/03/31 05:43:16;;;;;;;11.85;9.57;;;;;;;;;;4982314;28;20070;-70
2022/03/31 05:45:42;;;;;;;7.40;6.70;;;;;;;;;;4972814;28;20089;-71
2022/03/31 05:48:08;;;;;;;7.40;6.70;;;;;;;;;;4968646;28;20038;-71
2022/03/31 05:50:34;;;;;;;7.63;6.93;;;;;;;;;;4962519;28;20049;-71
2022/03/31 05:53:00;;;;;;;10.95;9.90;;;;;;;;;;4982392;28;20042;-71
2022/03/31 05:55:28;;;;;;;27.15;24.65;;;;;;;;;;4983409;28;20046;-72
2022/03/31 05:57:54;;;;;;;12.95;11.65;;;;;;;;;;4980912;28;20042;-72
2022/03/31 06:00:21;;;;;;;12.10;10.95;;;;;;;;;;4980954;28;20085;-72
2022/03/31 06:02:48;;;;;;;20.55;18.60;;;;;;;;;;4982144;28;20042;-72
2022/03/31 06:05:15;;;;;;;8.32;7.53;;;;;;;;;;4986445;28;20034;-73
2022/03/31 06:07:41;;;;;;;9.23;8.38;;;;;;;;;;4968316;28;20034;-73
2022/03/31 06:10:07;;;;;;;9.02;8.13;;;;;;;;;;4987540;28;20050;-73
2022/03/31 06:12:34;;;;;;;8.98;8.18;;;;;;;;;;4992001;28;20049;-73
2022/03/31 06:15:00;;;;;;;10.85;9.85;;;;;;;;;;4988851;28;20044;-74
2022/03/31 06:17:26;;;;;;;8.70;7.90;;;;;;;;;;4986494;28;20103;-74
2022/03/31 06:19:53;;;;;;;8.93;8.00;;;;;;;;;;4983134;28;20038;-74
2022/03/31 06:22:19;;;;;;;11.40;10.10;;;;;;;;;;4989483;28;20133;-74
2022/03/31 06:24:45;;;;;;;10.95;9.85;;;;;;;;;;4988827;28;20035;-74
2022/03/31 06:27:11;;;;;;;10.00;9.07;;;;;;;;;;4985455;28;20038;-74
2022/03/31 06:29:41;;;;;;;10.48;9.48;;;;;;;;;;4989786;28;20034;-79
2022/03/31 06:32:08;;;;;;;11.20;10.10;;;;;;;;;;4971820;28;20038;-74
2022/03/31 06:34:36;;;;;;;10.65;9.55;;;;;;;;;;4996689;28;20097;-74
2022/03/31 06:37:02;;;;;;;10.57;9.57;;;;;;;;;;4972640;28;20050;-74
2022/03/31 06:39:28;;;;;;;10.93;9.93;;;;;;;;;;4989061;28;20045;-74
2022/03/31 06:41:54;;;;;;;10.50;9.60;;;;;;;;;;4990240;28;20031;-74
2022/03/31 06:44:21;;;;;;;10.70;9.70;;;;;;;;;;4973004;28;20417;-74
2022/03/31 06:46:47;;;;;;;11.00;9.98;;;;;;;;;;4989974;28;20070;-74
2022/03/31 06:49:13;;;;;;;11.30;10.20;;;;;;;;;;4989742;28;20047;-74
2022/03/31 06:51:43;;;;;;;10.77;9.77;;;;;;;;;;4988862;28;20030;-74
2022/03/31 06:54:09;;;;;;;11.23;10.18;;;;;;;;;;4991483;28;20045;-74
2022/03/31 06:56:36;;;;;;;10.68;9.68;;;;;;;;;;4990489;28;20035;-74
2022/03/31 06:59:02;;;;;;;9.90;9.00;;;;;;;;;;4989970;28;20133;-73
2022/03/31 07:01:28;;;;;;;10.93;9.93;;;;;;;;;;4989739;28;20083;-74
2022/03/31 07:03:55;;;;;;;10.85;9.85;;;;;;;;;;4988056;28;20069;-74
2022/03/31 07:06:22;;;;;;;9.68;8.82;;;;;;;;;;4993034;28;20046;-74
2022/03/31 07:08:48;;;;;;;9.18;8.27;;;;;;;;;;4994671;28;20049;-74
2022/03/31 07:11:14;;;;;;;9.18;8.38;;;;;;;;;;4991802;28;20038;-74
2022/03/31 07:13:40;;;;;;;10.00;9.10;;;;;;;;;;4986473;28;20074;-74
2022/03/31 07:16:07;;;;;;;9.27;8.48;;;;;;;;;;4991121;28;20030;-74
2022/03/31 07:18:33;;;;;;;9.85;8.85;;;;;;;;;;4992972;28;20116;-74
2022/03/31 07:20:59;;;;;;;10.18;9.27;;;;;;;;;;4992650;28;20070;-74
2022/03/31 07:23:26;;;;;;;10.43;9.52;;;;;;;;;;4992383;28;20525;-73
2022/03/31 07:26:01;;;;;;;10.10;9.20;;;;;;;;;;4995219;28;20077;-74
2022/03/31 07:28:27;;;;;;;9.73;8.82;;;;;;;;;;4959868;28;20113;-74
2022/03/31 07:30:54;;;;;;;11.82;10.68;;;;;;;;;;4991911;28;20089;-74
2022/03/31 07:33:21;;;;;;;11.45;10.35;;;;;;;;;;4993228;28;20043;-74
2022/03/31 07:35:50;;;;;;;10.57;9.55;;;;;;;;;;4994943;28;20038;-74
2022/03/31 07:38:17;;;;;;;11.23;10.23;;;;;;;;;;4976734;28;20134;-74
2022/03/31 07:40:43;;;;;;;12.52;11.23;;;;;;;;;;4990037;28;20042;-74
2022/03/31 07:43:09;;;;;;;12.45;11.23;;;;;;;;;;4992273;28;20034;-74
2022/03/31 07:45:36;;;;;;;12.30;11.20;;;;;;;;;;4993034;28;20042;-74
2022/03/31 07:48:04;;;;;;;12.23;11.07;;;;;;;;;;4992022;28;20081;-74
2022/03/31 07:50:30;;;;;;;12.73;11.43;;;;;;;;;;4988691;28;20038;-74
2022/03/31 07:52:56;;;;;;;13.15;11.85;;;;;;;;;;4990786;28;20045;-74
2022/03/31 07:55:23;;;;;;;13.10;11.82;;;;;;;;;;4991094;28;20050;-74
2022/03/31 07:57:49;;;;;;;12.93;11.73;;;;;;;;;;4992740;28;20038;-74
2022/03/31 08:00:16;;;;;;;13.25;11.85;;;;;;;;;;4992086;28;20499;-74
2022/03/31 08:02:43;;;;;;;13.95;12.65;;;;;;;;;;4988897;28;20047;-74
2022/03/31 08:05:09;;;;;;;12.63;11.43;;;;;;;;;;4989720;28;20069;-74
2022/03/31 08:07:39;;;;;;;13.10;11.90;;;;;;;;;;4991562;28;20038;-74
2022/03/31 08:10:05;;;;;;;13.60;12.30;;;;;;;;;;4992105;28;20050;-74
2022/03/31 08:12:33;;;;;;;12.50;11.38;;;;;;;;;;4991684;28;20050;-75
2022/03/31 08:15:00;;;;;;;12.82;11.63;;;;;;;;;;4987963;28;20038;-74
2022/03/31 08:17:27;;;;;;;13.43;12.10;;;;;;;;;;4975022;28;20129;-74
2022/03/31 08:19:53;;;;;;;13.10;11.80;;;;;;;;;;4990499;28;20065;-74
2022/03/31 08:22:19;;;;;;;12.82;11.63;;;;;;;;;;4989996;28;20100;-74
2022/03/31 08:24:45;;;;;;;12.60;11.50;;;;;;;;;;4992324;28;20049;-74
2022/03/31 08:27:11;;;;;;;14.38;13.00;;;;;;;;;;4993524;28;20042;-74
2022/03/31 08:29:39;;;;;;;14.20;12.80;;;;;;;;;;4991879;28;20601;-74
2022/03/31 08:32:06;;;;;;;14.05;12.75;;;;;;;;;;4991793;28;20030;-74
2022/03/31 08:34:32;;;;;;;13.65;12.25;;;;;;;;;;4986599;28;20050;-74
2022/03/31 08:36:58;;;;;;;13.63;12.30;;;;;;;;;;4990631;28;20038;-74
2022/03/31 08:39:24;;;;;;;14.32;13.00;;;;;;;;;;4975831;28;20055;-74
2022/03/31 08:41:51;;;;;;;13.20;12.00;;;;;;;;;;4991805;28;20038;-74
2022/03/31 08:44:19;;;;;;;14.55;13.25;;;;;;;;;;4980476;28;20052;-74
2022/03/31 08:46:45;;;;;;;13.32;12.02;;;;;;;;;;4990957;28;20050;-74
2022/03/31 08:49:12;;;;;;;12.65;11.43;;;;;;;;;;4991734;28;20684;-74
2022/03/31 08:51:38;;;;;;;13.40;12.05;;;;;;;;;;4988010;28;20517;-73
2022/03/31 08:54:05;;;;;;;13.57;12.27;;;;;;;;;;4991940;28;20042;-73
2022/03/31 08:56:31;;;;;;;13.13;11.93;;;;;;;;;;4975480;28;20084;-73
2022/03/31 08:58:57;;;;;;;13.80;12.45;;;;;;;;;;4987046;28;20050;-73
2022/03/31 09:01:23;;;;;;;14.13;12.82;;;;;;;;;;4983970;28;20129;-73
2022/03/31 09:03:49;;;;;;;14.18;12.77;;;;;;;;;;4991535;28;20071;-73
2022/03/31 09:06:22;;;;;;;14.68;13.27;;;;;;;;;;4990673;28;20041;-72
2022/03/31 09:08:58;;;;;;;13.05;11.75;;;;;;;;;;4991409;28;20042;-72
2022/03/31 09:11:28;;;;;;;14.38;12.98;;;;;;;;;;4973529;28;20077;-73
2022/03/31 09:13:55;;;;;;;12.35;11.18;;;;;;;;;;4990419;28;20042;-72
2022/03/31 09:16:29;;;;;;;12.88;11.55;;;;;;;;;;4989206;28;20049;-72
2022/03/31 09:18:59;;;;;;;12.35;11.07;;;;;;;;;;4985533;28;20050;-72
2022/03/31 09:21:25;;;;;;;12.25;11.05;;;;;;;;;;4982548;28;20042;-72
2022/03/31 09:23:52;;;;;;;11.43;10.07;;;;;;;;;;4973543;28;20043;-73
2022/03/31 09:26:19;;;;;;;11.15;10.05;;;;;;;;;;4960515;28;20045;-73
2022/03/31 09:28:46;;;;;;;11.32;10.20;;;;;;;;;;4974249;28;20064;-73
2022/03/31 09:31:13;;;;;;;10.60;9.48;;;;;;;;;;4999302;28;20044;-73
2022/03/31 09:33:49;;;;;;;10.93;9.82;;;;;;;;;;4994644;28;20042;-72
2022/03/31 09:36:16;;;;;;;11.77;10.65;;;;;;;;;;4990757;28;20078;-75
2022/03/31 09:38:52;;;;;;;9.82;8.82;;;;;;;;;;4991609;28;20471;-74
2022/03/31 09:41:19;;;;;;;12.88;11.68;;;;;;;;;;4989212;28;20042;-74
2022/03/31 09:43:45;;;;;;;9.50;8.60;;;;;;;;;;4974878;28;20034;-74
2022/03/31 09:46:22;;;;;;;10.65;9.65;;;;;;;;;;4992044;28;20049;-74
2022/03/31 09:48:48;;;;;;;9.98;8.40;;;;;;;;;;4974607;28;20045;-74
2022/03/31 09:51:14;;;;;;;8.93;8.02;;;;;;;;;;4991961;28;20122;-74
2022/03/31 09:53:41;;;;;;;9.05;8.15;;;;;;;;;;4972891;28;20046;-74
2022/03/31 09:56:07;;;;;;;8.15;7.35;;;;;;;;;;4991132;28;20035;-74
2022/03/31 09:58:37;;;;;;;8.00;7.20;;;;;;;;;;4987834;28;20049;-74
2022/03/31 10:01:04;;;;;;;6.88;6.18;;;;;;;;;;5003287;28;20042;-75
2022/03/31 10:03:31;;;;;;;6.22;5.63;;;;;;;;;;4994206;28;20108;-74
2022/03/31 10:05:57;;;;;;;5.50;5.00;;;;;;;;;;4991928;28;20070;-74
2022/03/31 10:08:24;;;;;;;4.90;4.50;;;;;;;;;;4976835;28;20130;-74
2022/03/31 10:10:50;;;;;;;4.80;4.40;;;;;;;;;;4990397;28;20046;-75
2022/03/31 10:13:22;;;;;;;4.53;4.13;;;;;;;;;;4984991;28;20050;-75
2022/03/31 10:15:54;;;;;;;4.85;4.40;;;;;;;;;;4991936;28;20046;-74
2022/03/31 10:18:21;;;;;;;4.10;3.80;;;;;;;;;;4994370;28;20078;-75
2022/03/31 10:20:56;;;;;;;7.30;6.35;;;;;;;;;;4991746;28;20034;-74
2022/03/31 10:26:07;;;;;;;4.10;3.75;;;;;;;;;;4991356;28;20053;-75
2022/03/31 10:28:33;;;;;;;3.83;3.47;;;;;;;;;;4991384;28;20046;-75
2022/03/31 10:31:01;;;;;;;4.75;4.35;;;;;;;;;;4983459;28;20085;-75
2022/03/31 10:33:29;;;;;;;4.38;3.97;;;;;;;;;;4992192;28;20070;-76
2022/03/31 10:36:22;;;;;;;4.05;3.75;;;;;;;;;;4989161;28;20691;-74
2022/03/31 10:38:53;;;;;;;4.30;4.00;;;;;;;;;;4984130;28;20061;-74
2022/03/31 10:41:19;;;;;;;4.68;4.28;;;;;;;;;;4991224;28;20042;-75
2022/03/31 10:43:52;;;;;;;4.82;4.43;;;;;;;;;;4994356;28;20121;-75
2022/03/31 10:46:19;;;;;;;4.85;4.45;;;;;;;;;;4994383;28;20054;-75
2022/03/31 10:48:54;;;;;;;4.43;4.03;;;;;;;;;;4994547;28;20042;-75
2022/03/31 10:51:30;;;;;;;4.63;4.22;;;;;;;;;;4993970;28;20076;-74
2022/03/31 10:53:57;;;;;;;4.35;3.97;;;;;;;;;;4995406;28;20045;-75
2022/03/31 10:56:25;;;;;;;4.90;4.50;;;;;;;;;;4994403;28;20082;-74
2022/03/31 10:58:52;;;;;;;4.70;4.30;;;;;;;;;;4995731;28;20041;-75
2022/03/31 11:01:19;;;;;;;4.90;4.50;;;;;;;;;;5003583;28;20046;-75
2022/03/31 11:03:50;;;;;;;4.78;4.38;;;;;;;;;;4996743;28;20126;-75
2022/03/31 11:06:17;;;;;;;4.70;4.30;;;;;;;;;;4989560;28;20042;-75
2022/03/31 11:08:45;;;;;;;4.95;4.55;;;;;;;;;;4990108;28;20131;-76
2022/03/31 11:11:19;;;;;;;4.75;4.35;;;;;;;;;;4994382;28;20046;-74
2022/03/31 11:13:45;;;;;;;5.10;4.70;;;;;;;;;;4993945;28;20049;-74
2022/03/31 11:16:12;;;;;;;4.85;4.45;;;;;;;;;;4977446;28;20042;-74
2022/03/31 11:18:38;;;;;;;4.72;4.32;;;;;;;;;;4977546;28;20046;-74
2022/03/31 11:21:04;;;;;;;4.72;4.32;;;;;;;;;;4977425;28;20113;-74
2022/03/31 11:23:31;;;;;;;4.90;4.50;;;;;;;;;;4995328;28;20038;-75
2022/03/31 11:25:58;;;;;;;4.88;4.47;;;;;;;;;;4994342;28;20053;-74
2022/03/31 11:28:28;;;;;;;4.93;4.47;;;;;;;;;;4993797;28;20046;-74
2022/03/31 11:30:54;;;;;;;5.15;4.75;;;;;;;;;;4993691;28;20034;-74
2022/03/31 11:33:20;;;;;;;27.33;18.73;;;;;;;;;;4993334;28;20132;-74
2022/03/31 11:35:51;;;;;;;11.70;9.95;;;;;;;;;;4994558;28;20046;-74
2022/03/31 11:38:18;;;;;;;51.53;34.25;;;;;;;;;;5002357;28;20046;-74
2022/03/31 11:40:49;;;;;;;22.40;18.65;;;;;;;;;;4999256;28;20038;-74
2022/03/31 11:43:19;;;;;;;5.15;4.75;;;;;;;;;;4994385;28;20027;-74
2022/03/31 11:45:48;;;;;;;8.82;8.00;;;;;;;;;;4993301;28;20076;-74
2022/03/31 11:48:16;;;;;;;4.57;4.18;;;;;;;;;;5045029;23;20456;-75
2022/03/31 11:50:53;;;;;;;5.00;4.60;;;;;;;;;;5017229;28;20045;-75
2022/03/31 11:53:19;;;;;;;5.38;4.97;;;;;;;;;;5012790;28;20080;-76
2022/03/31 11:55:58;;;;;;;4.70;4.30;;;;;;;;;;5012541;28;20549;-75
2022/03/31 11:58:24;;;;;;;5.40;4.90;;;;;;;;;;5009743;28;20046;-75
2022/03/31 12:00:50;;;;;;;5.03;4.63;;;;;;;;;;4994887;28;20038;-75
2022/03/31 12:03:17;;;;;;;5.60;5.10;;;;;;;;;;4993269;28;20044;-75
2022/03/31 12:06:00;;;;;;;5.18;4.78;;;;;;;;;;5011148;28;20038;-75
2022/03/31 12:08:27;;;;;;;5.20;4.70;;;;;;;;;;5002350;28;20708;-75
2022/03/31 12:10:53;;;;;;;5.28;4.88;;;;;;;;;;4974730;28;20439;-76
2022/03/31 12:13:20;;;;;;;6.10;5.60;;;;;;;;;;4994118;28;20661;-75
2022/03/31 12:15:46;;;;;;;6.38;5.78;;;;;;;;;;4991064;28;20486;-75
2022/03/31 12:18:13;;;;;;;6.30;5.70;;;;;;;;;;4992357;28;20050;-75
2022/03/31 12:20:40;;;;;;;7.32;6.63;;;;;;;;;;4992921;28;20498;-76
2022/03/31 12:23:20;;;;;;;7.32;6.63;;;;;;;;;;4993976;28;20042;-76
2022/03/31 12:25:46;;;;;;;7.50;6.80;;;;;;;;;;5006482;28;20486;-75
2022/03/31 12:28:12;;;;;;;7.88;7.18;;;;;;;;;;4990296;28;20491;-75
2022/03/31 12:30:39;;;;;;;9.63;8.75;;;;;;;;;;4986536;28;20129;-75
2022/03/31 12:33:15;;;;;;;8.65;7.85;;;;;;;;;;4994733;28;20038;-75
2022/03/31 12:35:41;;;;;;;9.52;8.52;;;;;;;;;;4975993;28;20042;-75
2022/03/31 12:38:09;;;;;;;11.65;9.82;;;;;;;;;;4986180;28;20506;-75
2022/03/31 12:40:35;;;;;;;10.95;9.85;;;;;;;;;;4990938;28;20049;-75
2022/03/31 12:43:01;;;;;;;11.30;10.20;;;;;;;;;;4991061;28;20493;-75
2022/03/31 12:45:33;;;;;;;14.23;11.05;;;;;;;;;;4973538;28;20508;-75
2022/03/31 12:48:07;;;;;;;14.00;11.73;;;;;;;;;;4989402;28;20520;-75
2022/03/31 12:50:33;;;;;;;13.98;12.45;;;;;;;;;;4988823;28;20525;-75
2022/03/31 12:53:02;;;;;;;14.80;13.27;;;;;;;;;;4987850;28;20494;-75
2022/03/31 12:55:33;;;;;;;17.02;14.43;;;;;;;;;;4989678;28;20109;-76
2022/03/31 12:58:00;;;;;;;16.35;14.65;;;;;;;;;;4970466;28;20414;-76
2022/03/31 13:00:26;;;;;;;17.50;15.70;;;;;;;;;;4988488;28;20042;-75
2022/03/31 13:02:53;;;;;;;19.05;17.00;;;;;;;;;;4990260;28;20494;-75
2022/03/31 13:05:20;;;;;;;19.65;17.30;;;;;;;;;;4975062;28;20049;-75
2022/03/31 13:07:46;;;;;;;20.23;17.70;;;;;;;;;;4991444;28;20490;-75
2022/03/31 13:10:12;;;;;;;25.25;19.80;;;;;;;;;;4990624;28;20490;-75
2022/03/31 13:12:40;;;;;;;22.45;19.08;;;;;;;;;;4993707;28;20046;-75
2022/03/31 13:15:10;;;;;;;24.58;19.90;;;;;;;;;;4995421;28;20502;-75
2022/03/31 13:17:37;;;;;;;25.85;22.08;;;;;;;;;;4990824;28;20502;-75
2022/03/31 13:20:03;;;;;;;24.85;22.15;;;;;;;;;;4992569;28;20482;-75
2022/03/31 13:22:29;;;;;;;26.73;22.70;;;;;;;;;;4976386;28;20031;-75
2022/03/31 13:24:55;;;;;;;26.00;23.17;;;;;;;;;;4991112;28;20038;-75
2022/03/31 13:27:21;;;;;;;26.27;23.40;;;;;;;;;;4989185;28;20457;-75
2022/03/31 13:29:48;;;;;;;31.05;25.17;;;;;;;;;;4988705;28;20100;-75
2022/03/31 13:32:14;;;;;;;32.97;27.90;;;;;;;;;;4993247;28;20410;-76
2022/03/31 13:34:46;;;;;;;33.40;27.67;;;;;;;;;;4991126;28;20038;-75
2022/03/31 13:37:12;;;;;;;34.22;27.13;;;;;;;;;;4972335;28;20072;-76
2022/03/31 13:39:38;;;;;;;30.85;26.83;;;;;;;;;;4989242;28;20386;-75
2022/03/31 13:42:06;;;;;;;33.28;27.08;;;;;;;;;;4986711;28;20126;-75
2022/03/31 13:44:32;;;;;;;32.70;28.27;;;;;;;;;;4987565;28;20039;-75
2022/03/31 13:46:59;;;;;;;31.63;25.58;;;;;;;;;;4989753;28;20058;-75
2022/03/31 13:49:26;;;;;;;41.42;32.45;;;;;;;;;;4990458;28;20092;-75
2022/03/31 13:51:52;;;;;;;30.98;25.83;;;;;;;;;;4990427;28;20042;-75
2022/03/31 13:54:19;;;;;;;30.90;26.05;;;;;;;;;;4990879;28;20039;-75
2022/03/31 13:56:47;;;;;;;26.15;23.30;;;;;;;;;;4988315;28;20438;-75
2022/03/31 14:01:59;;;;;;;26.88;22.67;;;;;;;;;;4990690;28;20058;-75
2022/03/31 14:04:26;;;;;;;28.48;23.13;;;;;;;;;;4993039;28;20488;-75
2022/03/31 14:06:53;;;;;;;28.65;23.50;;;;;;;;;;4987787;28;20502;-75
2022/03/31 14:09:22;;;;;;;27.70;22.60;;;;;;;;;;4988021;28;20433;-76
2022/03/31 14:11:48;;;;;;;26.05;22.90;;;;;;;;;;4983922;28;20098;-75
2022/03/31 14:14:15;;;;;;;26.23;22.25;;;;;;;;;;4987757;28;20495;-75
2022/03/31 14:16:44;;;;;;;25.50;22.42;;;;;;;;;;4990966;28;20038;-76
2022/03/31 14:19:11;;;;;;;31.95;23.40;;;;;;;;;;4991469;28;20042;-75
2022/03/31 14:21:41;;;;;;;24.00;20.70;;;;;;;;;;4972877;28;20031;-76
2022/03/31 14:24:08;;;;;;;28.02;21.95;;;;;;;;;;4990030;28;20703;-76
2022/03/31 14:26:35;;;;;;;23.33;20.70;;;;;;;;;;4976170;28;20514;-75
2022/03/31 14:29:01;;;;;;;22.00;19.65;;;;;;;;;;4990998;28;20497;-75
2022/03/31 14:31:27;;;;;;;21.48;19.27;;;;;;;;;;4994137;28;20450;-75
2022/03/31 14:33:54;;;;;;;26.25;19.58;;;;;;;;;;4991092;28;20580;-76
2022/03/31 14:36:22;;;;;;;26.00;21.15;;;;;;;;;;4988844;28;20050;-75
2022/03/31 14:38:48;;;;;;;29.90;26.58;;;;;;;;;;4990327;28;20572;-76
2022/03/31 14:41:16;;;;;;;22.80;19.75;;;;;;;;;;4977352;28;20465;-74
2022/03/31 14:43:52;;;;;;;23.90;20.63;;;;;;;;;;4974856;28;20438;-75
2022/03/31 14:46:19;;;;;;;22.95;19.75;;;;;;;;;;4974853;28;20085;-75
2022/03/31 14:48:46;;;;;;;22.15;19.75;;;;;;;;;;4975614;28;20216;-74
2022/03/31 14:51:13;;;;;;;20.17;17.98;;;;;;;;;;4991240;28;20564;-75
2022/03/31 14:53:39;;;;;;;20.15;17.98;;;;;;;;;;4993062;28;20401;-75